sensor_id;sensor_type;location;lat;lon;timestamp;pressure;altitude;pressure_sealevel;temperature;humidity
45763;BME280;37512;52.408;13.356;2022-10-26T00:03:00;101367.50;;;8.42;100.00
45763;BME280;37512;52.408;13.356;2022-10-26T00:07:01;101372.84;;;8.38;100.00
45763;BME280;37512;52.408;13.356;2022-10-26T00:11:03;101369.13;;;8.43;100.00
45763;BME280;37512;52.408;13.356;2022-10-26T00:15:06;101355.28;;;8.43;100.00
45763;BME280;37512;52.408;13.356;2022-10-26T00:19:08;101366.03;;;8.36;100.00
45763;BME280;37512;52.408;13.356;2022-10-26T00:23:09;101352.72;;;8.29;100.00
45763;BME280;37512;52.408;13.356;2022-10-26T00:27:11;101365.66;;;8.16;100.00
45763;BME280;37512;52.408;13.356;2022-10-26T00:31:13;101366.34;;;8.05;100.00
45763;BME280;37512;52.408;13.356;2022-10-26T00:35:15;101376.94;;;8.03;100.00
45763;BME280;37512;52.408;13.356;2022-10-26T00:39:24;101382.00;;;8.01;100.00
45763;BME280;37512;52.408;13.356;2022-10-26T00:47:38;101389.66;;;7.95;100.00
45763;BME280;37512;52.408;13.356;2022-10-26T00:51:43;101396.38;;;7.77;100.00
45763;BME280;37512;52.408;13.356;2022-10-26T00:55:48;101393.38;;;7.99;100.00
45763;BME280;37512;52.408;13.356;2022-10-26T00:59:51;101379.38;;;8.04;100.00
45763;BME280;37512;52.408;13.356;2022-10-26T01:03:55;101380.09;;;7.84;100.00
45763;BME280;37512;52.408;13.356;2022-10-26T01:07:57;101372.78;;;7.88;100.00
45763;BME280;37512;52.408;13.356;2022-10-26T01:11:58;101370.00;;;7.88;100.00
45763;BME280;37512;52.408;13.356;2022-10-26T01:16:18;101364.47;;;7.88;100.00
45763;BME280;37512;52.408;13.356;2022-10-26T01:24:49;101362.09;;;8.07;100.00
45763;BME280;37512;52.408;13.356;2022-10-26T01:37:27;101347.69;;;7.93;100.00
45763;BME280;37512;52.408;13.356;2022-10-26T01:41:32;101343.38;;;7.83;100.00
45763;BME280;37512;52.408;13.356;2022-10-26T01:45:38;101342.59;;;7.65;100.00
45763;BME280;37512;52.408;13.356;2022-10-26T01:49:44;101340.25;;;7.38;100.00
45763;BME280;37512;52.408;13.356;2022-10-26T01:53:47;101341.31;;;7.63;100.00
45763;BME280;37512;52.408;13.356;2022-10-26T01:57:50;101334.75;;;7.20;100.00
45763;BME280;37512;52.408;13.356;2022-10-26T02:02:14;101341.41;;;7.19;100.00
45763;BME280;37512;52.408;13.356;2022-10-26T02:15:53;101329.69;;;7.40;100.00
45763;BME280;37512;52.408;13.356;2022-10-26T02:20:06;101330.81;;;7.39;100.00
45763;BME280;37512;52.408;13.356;2022-10-26T02:24:11;101330.81;;;7.39;100.00
45763;BME280;37512;52.408;13.356;2022-10-26T02:28:17;101330.50;;;7.31;100.00
45763;BME280;37512;52.408;13.356;2022-10-26T02:32:22;101340.13;;;7.25;100.00
45763;BME280;37512;52.408;13.356;2022-10-26T02:36:28;101338.84;;;6.97;100.00
45763;BME280;37512;52.408;13.356;2022-10-26T02:40:31;101347.59;;;6.99;100.00
45763;BME280;37512;52.408;13.356;2022-10-26T02:44:43;101356.38;;;7.09;100.00
45763;BME280;37512;52.408;13.356;2022-10-26T02:48:46;101352.63;;;6.88;100.00
45763;BME280;37512;52.408;13.356;2022-10-26T02:52:59;101349.38;;;6.95;100.00
45763;BME280;37512;52.408;13.356;2022-10-26T02:57:33;101344.03;;;6.89;100.00
45763;BME280;37512;52.408;13.356;2022-10-26T03:01:40;101346.59;;;6.77;100.00
45763;BME280;37512;52.408;13.356;2022-10-26T03:05:42;101349.53;;;6.81;100.00
45763;BME280;37512;52.408;13.356;2022-10-26T03:09:43;101352.63;;;6.70;100.00
45763;BME280;37512;52.408;13.356;2022-10-26T03:13:45;101359.59;;;6.85;100.00
45763;BME280;37512;52.408;13.356;2022-10-26T03:17:46;101355.88;;;6.90;100.00
45763;BME280;37512;52.408;13.356;2022-10-26T03:21:48;101362.06;;;6.96;100.00
45763;BME280;37512;52.408;13.356;2022-10-26T03:25:50;101347.44;;;6.78;100.00
45763;BME280;37512;52.408;13.356;2022-10-26T03:29:52;101356.84;;;6.85;100.00
45763;BME280;37512;52.408;13.356;2022-10-26T03:33:53;101356.19;;;6.62;100.00
45763;BME280;37512;52.408;13.356;2022-10-26T03:37:54;101360.09;;;6.87;100.00
45763;BME280;37512;52.408;13.356;2022-10-26T03:41:56;101350.34;;;6.99;100.00
45763;BME280;37512;52.408;13.356;2022-10-26T03:45:57;101356.53;;;6.96;100.00
45763;BME280;37512;52.408;13.356;2022-10-26T03:49:59;101354.72;;;7.08;100.00
45763;BME280;37512;52.408;13.356;2022-10-26T03:54:00;101350.00;;;7.18;100.00
45763;BME280;37512;52.408;13.356;2022-10-26T03:58:02;101360.44;;;7.12;100.00
45763;BME280;37512;52.408;13.356;2022-10-26T04:02:03;101360.09;;;6.96;100.00
45763;BME280;37512;52.408;13.356;2022-10-26T04:06:05;101363.84;;;6.91;100.00
45763;BME280;37512;52.408;13.356;2022-10-26T04:10:06;101368.38;;;7.05;100.00
45763;BME280;37512;52.408;13.356;2022-10-26T04:14:08;101361.38;;;6.73;100.00
45763;BME280;37512;52.408;13.356;2022-10-26T04:18:10;101370.81;;;6.98;100.00
45763;BME280;37512;52.408;13.356;2022-10-26T04:22:14;101379.25;;;6.93;100.00
45763;BME280;37512;52.408;13.356;2022-10-26T04:26:15;101371.97;;;7.14;100.00
45763;BME280;37512;52.408;13.356;2022-10-26T04:30:17;101376.50;;;7.10;100.00
45763;BME280;37512;52.408;13.356;2022-10-26T04:34:19;101377.13;;;7.07;100.00
45763;BME280;37512;52.408;13.356;2022-10-26T04:38:20;101377.28;;;6.93;100.00
45763;BME280;37512;52.408;13.356;2022-10-26T04:42:21;101374.56;;;6.84;100.00
45763;BME280;37512;52.408;13.356;2022-10-26T04:46:23;101391.25;;;6.88;100.00
45763;BME280;37512;52.408;13.356;2022-10-26T04:50:25;101387.69;;;6.79;100.00
45763;BME280;37512;52.408;13.356;2022-10-26T04:54:28;101386.88;;;6.87;100.00
45763;BME280;37512;52.408;13.356;2022-10-26T04:58:30;101385.88;;;6.74;100.00
45763;BME280;37512;52.408;13.356;2022-10-26T05:02:31;101378.59;;;6.78;100.00
45763;BME280;37512;52.408;13.356;2022-10-26T05:06:33;101376.16;;;6.77;100.00
45763;BME280;37512;52.408;13.356;2022-10-26T05:10:34;101375.50;;;6.71;100.00
45763;BME280;37512;52.408;13.356;2022-10-26T05:14:36;101376.50;;;6.75;100.00
45763;BME280;37512;52.408;13.356;2022-10-26T05:18:37;101376.00;;;6.90;100.00
45763;BME280;37512;52.408;13.356;2022-10-26T05:22:39;101376.66;;;6.96;100.00
45763;BME280;37512;52.408;13.356;2022-10-26T05:26:41;101371.94;;;6.97;100.00
45763;BME280;37512;52.408;13.356;2022-10-26T05:30:44;101378.44;;;7.01;100.00
45763;BME280;37512;52.408;13.356;2022-10-26T05:34:46;101377.31;;;7.02;100.00
45763;BME280;37512;52.408;13.356;2022-10-26T05:38:47;101377.97;;;7.07;100.00
45763;BME280;37512;52.408;13.356;2022-10-26T05:42:49;101371.59;;;7.07;100.00
45763;BME280;37512;52.408;13.356;2022-10-26T05:46:54;101366.59;;;7.00;100.00
45763;BME280;37512;52.408;13.356;2022-10-26T05:50:59;101368.22;;;7.01;100.00
45763;BME280;37512;52.408;13.356;2022-10-26T05:55:01;101364.81;;;6.96;100.00
45763;BME280;37512;52.408;13.356;2022-10-26T05:59:09;101378.13;;;6.94;100.00
45763;BME280;37512;52.408;13.356;2022-10-26T06:07:21;101371.78;;;6.76;100.00
45763;BME280;37512;52.408;13.356;2022-10-26T06:11:23;101376.97;;;6.86;100.00
45763;BME280;37512;52.408;13.356;2022-10-26T06:15:24;101369.34;;;6.83;100.00
45763;BME280;37512;52.408;13.356;2022-10-26T06:19:39;101375.84;;;6.87;100.00
45763;BME280;37512;52.408;13.356;2022-10-26T06:23:52;101376.81;;;6.82;100.00
45763;BME280;37512;52.408;13.356;2022-10-26T06:32:08;101394.97;;;6.83;100.00
45763;BME280;37512;52.408;13.356;2022-10-26T06:36:26;101395.19;;;6.96;100.00
45763;BME280;37512;52.408;13.356;2022-10-26T06:40:30;101393.22;;;7.05;100.00
45763;BME280;37512;52.408;13.356;2022-10-26T06:44:33;101393.06;;;7.10;100.00
45763;BME280;37512;52.408;13.356;2022-10-26T06:49:47;101394.84;;;7.23;100.00
45763;BME280;37512;52.408;13.356;2022-10-26T06:57:36;101406.16;;;7.48;100.00
45763;BME280;37512;52.408;13.356;2022-10-26T07:01:39;101404.38;;;7.69;100.00
45763;BME280;37512;52.408;13.356;2022-10-26T07:05:42;101408.13;;;7.56;100.00
45763;BME280;37512;52.408;13.356;2022-10-26T07:09:44;101414.22;;;7.96;100.00
45763;BME280;37512;52.408;13.356;2022-10-26T07:13:45;101409.69;;;7.83;100.00
45763;BME280;37512;52.408;13.356;2022-10-26T07:17:48;101416.81;;;7.84;100.00
45763;BME280;37512;52.408;13.356;2022-10-26T07:21:50;101427.00;;;8.10;100.00
45763;BME280;37512;52.408;13.356;2022-10-26T07:25:51;101427.69;;;8.36;100.00
45763;BME280;37512;52.408;13.356;2022-10-26T07:29:53;101424.16;;;8.27;100.00
45763;BME280;37512;52.408;13.356;2022-10-26T07:33:54;101424.31;;;8.69;100.00
45763;BME280;37512;52.408;13.356;2022-10-26T07:37:57;101426.91;;;8.95;100.00
45763;BME280;37512;52.408;13.356;2022-10-26T07:41:58;101423.09;;;9.21;100.00
45763;BME280;37512;52.408;13.356;2022-10-26T07:46:00;101428.13;;;9.07;100.00
45763;BME280;37512;52.408;13.356;2022-10-26T07:50:01;101416.91;;;9.24;100.00
45763;BME280;37512;52.408;13.356;2022-10-26T07:54:03;101413.16;;;9.41;100.00
45763;BME280;37512;52.408;13.356;2022-10-26T07:58:05;101410.03;;;9.76;100.00
45763;BME280;37512;52.408;13.356;2022-10-26T08:02:08;101406.06;;;9.98;100.00
45763;BME280;37512;52.408;13.356;2022-10-26T08:06:11;101419.03;;;10.06;100.00
45763;BME280;37512;52.408;13.356;2022-10-26T08:10:13;101417.34;;;9.80;100.00
45763;BME280;37512;52.408;13.356;2022-10-26T08:14:15;101418.88;;;9.90;100.00
45763;BME280;37512;52.408;13.356;2022-10-26T08:18:17;101411.50;;;10.07;100.00
45763;BME280;37512;52.408;13.356;2022-10-26T08:22:18;101418.63;;;10.29;100.00
45763;BME280;37512;52.408;13.356;2022-10-26T08:26:19;101408.66;;;10.77;100.00
45763;BME280;37512;52.408;13.356;2022-10-26T08:30:21;101413.94;;;10.82;100.00
45763;BME280;37512;52.408;13.356;2022-10-26T08:34:23;101409.28;;;10.98;100.00
45763;BME280;37512;52.408;13.356;2022-10-26T08:38:24;101399.97;;;10.66;100.00
45763;BME280;37512;52.408;13.356;2022-10-26T08:42:37;101409.94;;;11.07;100.00
45763;BME280;37512;52.408;13.356;2022-10-26T08:46:44;101408.22;;;11.03;100.00
45763;BME280;37512;52.408;13.356;2022-10-26T08:50:53;101412.94;;;11.71;100.00
45763;BME280;37512;52.408;13.356;2022-10-26T08:54:57;101406.84;;;11.81;100.00
45763;BME280;37512;52.408;13.356;2022-10-26T08:59:11;101395.06;;;12.16;100.00
45763;BME280;37512;52.408;13.356;2022-10-26T09:03:16;101400.72;;;12.20;100.00
45763;BME280;37512;52.408;13.356;2022-10-26T09:07:28;101394.00;;;12.21;100.00
45763;BME280;37512;52.408;13.356;2022-10-26T09:11:55;101394.44;;;12.23;100.00
45763;BME280;37512;52.408;13.356;2022-10-26T09:16:21;101401.97;;;12.89;100.00
45763;BME280;37512;52.408;13.356;2022-10-26T09:24:48;101408.53;;;13.36;100.00
45763;BME280;37512;52.408;13.356;2022-10-26T09:28:52;101401.09;;;13.24;100.00
45763;BME280;37512;52.408;13.356;2022-10-26T09:32:58;101395.84;;;13.58;100.00
45763;BME280;37512;52.408;13.356;2022-10-26T09:37:20;101401.44;;;13.81;100.00
45763;BME280;37512;52.408;13.356;2022-10-26T09:41:32;101407.22;;;14.15;100.00
45763;BME280;37512;52.408;13.356;2022-10-26T09:45:43;101407.00;;;14.27;100.00
45763;BME280;37512;52.408;13.356;2022-10-26T09:50:01;101406.38;;;14.60;100.00
45763;BME280;37512;52.408;13.356;2022-10-26T09:54:15;101398.34;;;14.55;100.00
45763;BME280;37512;52.408;13.356;2022-10-26T09:58:29;101406.19;;;15.33;100.00
45763;BME280;37512;52.408;13.356;2022-10-26T10:02:43;101406.91;;;15.60;100.00
45763;BME280;37512;52.408;13.356;2022-10-26T10:06:49;101404.63;;;16.10;100.00
45763;BME280;37512;52.408;13.356;2022-10-26T10:11:01;101401.13;;;15.46;100.00
45763;BME280;37512;52.408;13.356;2022-10-26T10:15:04;101408.84;;;15.22;100.00
45763;BME280;37512;52.408;13.356;2022-10-26T10:19:20;101410.31;;;15.80;100.00
45763;BME280;37512;52.408;13.356;2022-10-26T10:23:30;101404.69;;;15.77;100.00
45763;BME280;37512;52.408;13.356;2022-10-26T10:27:32;101403.44;;;16.67;100.00
45763;BME280;37512;52.408;13.356;2022-10-26T10:31:34;101404.56;;;16.55;100.00
45763;BME280;37512;52.408;13.356;2022-10-26T10:35:36;101404.75;;;16.80;100.00
45763;BME280;37512;52.408;13.356;2022-10-26T10:39:40;101402.47;;;16.41;100.00
45763;BME280;37512;52.408;13.356;2022-10-26T10:43:45;101400.16;;;17.24;97.57
45763;BME280;37512;52.408;13.356;2022-10-26T10:52:28;101397.03;;;17.36;92.61
45763;BME280;37512;52.408;13.356;2022-10-26T10:56:33;101409.84;;;17.33;93.80
45763;BME280;37512;52.408;13.356;2022-10-26T11:00:36;101401.59;;;17.91;91.12
45763;BME280;37512;52.408;13.356;2022-10-26T11:05:10;101402.09;;;17.02;91.87
45763;BME280;37512;52.408;13.356;2022-10-26T11:09:11;101405.13;;;17.73;89.82
45763;BME280;37512;52.408;13.356;2022-10-26T11:13:23;101393.19;;;18.09;88.06
45763;BME280;37512;52.408;13.356;2022-10-26T11:17:36;101402.00;;;18.00;86.09
45763;BME280;37512;52.408;13.356;2022-10-26T11:21:38;101401.19;;;17.82;83.90
45763;BME280;37512;52.408;13.356;2022-10-26T11:25:56;101398.78;;;18.45;79.81
45763;BME280;37512;52.408;13.356;2022-10-26T11:30:05;101393.25;;;19.54;78.30
45763;BME280;37512;52.408;13.356;2022-10-26T11:38:16;101390.38;;;18.37;80.14
45763;BME280;37512;52.408;13.356;2022-10-26T11:42:50;101386.16;;;19.28;73.16
45763;BME280;37512;52.408;13.356;2022-10-26T11:46:58;101379.47;;;18.75;76.01
45763;BME280;37512;52.408;13.356;2022-10-26T11:51:01;101376.09;;;19.34;73.18
45763;BME280;37512;52.408;13.356;2022-10-26T11:55:07;101382.59;;;19.91;71.32
45763;BME280;37512;52.408;13.356;2022-10-26T11:59:17;101375.09;;;19.70;72.28
45763;BME280;37512;52.408;13.356;2022-10-26T12:03:26;101372.03;;;20.02;68.65
45763;BME280;37512;52.408;13.356;2022-10-26T12:07:31;101365.56;;;19.46;70.67
45763;BME280;37512;52.408;13.356;2022-10-26T12:11:51;101367.38;;;19.77;70.22
45763;BME280;37512;52.408;13.356;2022-10-26T12:16:03;101369.66;;;20.00;68.95
45763;BME280;37512;52.408;13.356;2022-10-26T12:24:30;101358.34;;;20.04;68.52
45763;BME280;37512;52.408;13.356;2022-10-26T12:45:14;101356.56;;;20.66;67.26
45763;BME280;37512;52.408;13.356;2022-10-26T12:54:16;101360.81;;;20.85;66.79
45763;BME280;37512;52.408;13.356;2022-10-26T12:58:49;101363.81;;;20.25;69.34
45763;BME280;37512;52.408;13.356;2022-10-26T13:07:21;101358.00;;;21.16;65.19
45763;BME280;37512;52.408;13.356;2022-10-26T13:11:34;101366.50;;;21.46;64.42
45763;BME280;37512;52.408;13.356;2022-10-26T13:15:52;101344.78;;;21.40;63.90
45763;BME280;37512;52.408;13.356;2022-10-26T13:20:03;101347.72;;;19.74;69.40
45763;BME280;37512;52.408;13.356;2022-10-26T13:24:12;101349.09;;;20.45;65.68
45763;BME280;37512;52.408;13.356;2022-10-26T13:32:50;101345.47;;;20.03;67.85
45763;BME280;37512;52.408;13.356;2022-10-26T13:41:20;101368.34;;;19.53;69.45
45763;BME280;37512;52.408;13.356;2022-10-26T13:45:46;101355.81;;;19.61;69.74
45763;BME280;37512;52.408;13.356;2022-10-26T13:49:53;101363.69;;;19.21;71.36
45763;BME280;37512;52.408;13.356;2022-10-26T13:54:01;101365.53;;;19.53;72.22
45763;BME280;37512;52.408;13.356;2022-10-26T13:58:35;101364.28;;;20.13;69.55
45763;BME280;37512;52.408;13.356;2022-10-26T14:02:41;101367.81;;;19.72;69.87
45763;BME280;37512;52.408;13.356;2022-10-26T14:06:50;101370.44;;;20.01;70.77
45763;BME280;37512;52.408;13.356;2022-10-26T14:10:54;101376.94;;;19.17;73.47
45763;BME280;37512;52.408;13.356;2022-10-26T14:15:05;101365.72;;;19.10;74.04
45763;BME280;37512;52.408;13.356;2022-10-26T14:19:13;101366.31;;;19.57;74.36
45763;BME280;37512;52.408;13.356;2022-10-26T14:27:32;101368.81;;;20.00;75.83
45763;BME280;37512;52.408;13.356;2022-10-26T14:31:38;101375.47;;;19.75;74.43
45763;BME280;37512;52.408;13.356;2022-10-26T14:35:39;101381.50;;;18.71;79.25
45763;BME280;37512;52.408;13.356;2022-10-26T14:39:44;101381.94;;;17.98;85.09
45763;BME280;37512;52.408;13.356;2022-10-26T14:43:48;101389.09;;;17.63;89.75
45763;BME280;37512;52.408;13.356;2022-10-26T14:47:50;101401.78;;;17.28;92.70
45763;BME280;37512;52.408;13.356;2022-10-26T14:51:57;101408.91;;;17.08;95.38
45763;BME280;37512;52.408;13.356;2022-10-26T14:55:59;101390.25;;;17.48;93.38
45763;BME280;37512;52.408;13.356;2022-10-26T15:00:09;101397.91;;;17.65;93.46
45763;BME280;37512;52.408;13.356;2022-10-26T15:08:52;101402.78;;;17.83;91.45
45763;BME280;37512;52.408;13.356;2022-10-26T15:13:07;101400.72;;;17.65;93.75
45763;BME280;37512;52.408;13.356;2022-10-26T15:17:24;101396.25;;;17.46;94.64
45763;BME280;37512;52.408;13.356;2022-10-26T15:21:34;101398.25;;;17.46;95.97
45763;BME280;37512;52.408;13.356;2022-10-26T15:25:36;101398.28;;;17.49;96.24
45763;BME280;37512;52.408;13.356;2022-10-26T15:29:43;101401.00;;;17.24;97.54
45763;BME280;37512;52.408;13.356;2022-10-26T15:37:53;101408.13;;;17.04;100.00
45763;BME280;37512;52.408;13.356;2022-10-26T15:41:56;101407.06;;;16.16;100.00
45763;BME280;37512;52.408;13.356;2022-10-26T15:45:57;101410.53;;;16.02;100.00
45763;BME280;37512;52.408;13.356;2022-10-26T15:49:59;101416.94;;;16.02;100.00
45763;BME280;37512;52.408;13.356;2022-10-26T15:54:02;101412.97;;;16.07;100.00
45763;BME280;37512;52.408;13.356;2022-10-26T15:58:04;101424.75;;;16.27;100.00
45763;BME280;37512;52.408;13.356;2022-10-26T16:02:13;101431.91;;;16.21;100.00
45763;BME280;37512;52.408;13.356;2022-10-26T16:06:17;101424.59;;;16.09;100.00
45763;BME280;37512;52.408;13.356;2022-10-26T16:10:22;101434.84;;;15.94;100.00
45763;BME280;37512;52.408;13.356;2022-10-26T16:14:23;101436.25;;;15.74;100.00
45763;BME280;37512;52.408;13.356;2022-10-26T16:18:33;101436.13;;;15.66;100.00
45763;BME280;37512;52.408;13.356;2022-10-26T16:22:37;101434.69;;;15.46;100.00
45763;BME280;37512;52.408;13.356;2022-10-26T16:26:43;101431.34;;;15.33;100.00
45763;BME280;37512;52.408;13.356;2022-10-26T16:30:44;101425.03;;;15.40;100.00
45763;BME280;37512;52.408;13.356;2022-10-26T16:34:46;101434.84;;;15.26;100.00
45763;BME280;37512;52.408;13.356;2022-10-26T16:38:50;101438.19;;;15.05;100.00
45763;BME280;37512;52.408;13.356;2022-10-26T16:42:51;101434.34;;;14.87;100.00
45763;BME280;37512;52.408;13.356;2022-10-26T16:46:53;101442.28;;;14.85;100.00
45763;BME280;37512;52.408;13.356;2022-10-26T16:50:55;101444.81;;;14.67;100.00
45763;BME280;37512;52.408;13.356;2022-10-26T16:54:56;101458.38;;;14.95;100.00
45763;BME280;37512;52.408;13.356;2022-10-26T16:58:59;101455.97;;;14.67;100.00
45763;BME280;37512;52.408;13.356;2022-10-26T17:03:01;101454.06;;;14.71;100.00
45763;BME280;37512;52.408;13.356;2022-10-26T17:07:03;101466.19;;;14.56;100.00
45763;BME280;37512;52.408;13.356;2022-10-26T17:15:08;101470.50;;;14.76;100.00
45763;BME280;37512;52.408;13.356;2022-10-26T17:19:13;101483.59;;;14.49;100.00
45763;BME280;37512;52.408;13.356;2022-10-26T17:23:15;101470.00;;;14.48;100.00
45763;BME280;37512;52.408;13.356;2022-10-26T17:27:17;101483.41;;;14.38;100.00
45763;BME280;37512;52.408;13.356;2022-10-26T17:31:19;101497.59;;;14.53;100.00
45763;BME280;37512;52.408;13.356;2022-10-26T17:35:20;101499.34;;;14.57;100.00
45763;BME280;37512;52.408;13.356;2022-10-26T17:39:22;101505.97;;;14.53;100.00
45763;BME280;37512;52.408;13.356;2022-10-26T17:43:23;101496.25;;;14.66;100.00
45763;BME280;37512;52.408;13.356;2022-10-26T17:47:25;101503.34;;;14.60;100.00
45763;BME280;37512;52.408;13.356;2022-10-26T17:51:28;101508.84;;;14.33;100.00
45763;BME280;37512;52.408;13.356;2022-10-26T17:55:29;101520.44;;;14.12;100.00
45763;BME280;37512;52.408;13.356;2022-10-26T17:59:31;101518.59;;;14.43;100.00
45763;BME280;37512;52.408;13.356;2022-10-26T18:03:33;101517.09;;;14.49;100.00
45763;BME280;37512;52.408;13.356;2022-10-26T18:07:34;101526.88;;;14.59;100.00
45763;BME280;37512;52.408;13.356;2022-10-26T18:11:36;101540.75;;;14.32;100.00
45763;BME280;37512;52.408;13.356;2022-10-26T18:15:38;101540.25;;;14.50;100.00
45763;BME280;37512;52.408;13.356;2022-10-26T18:19:39;101542.91;;;14.62;100.00
45763;BME280;37512;52.408;13.356;2022-10-26T18:23:41;101558.03;;;14.18;100.00
45763;BME280;37512;52.408;13.356;2022-10-26T18:27:42;101558.97;;;14.26;100.00
45763;BME280;37512;52.408;13.356;2022-10-26T18:31:45;101562.34;;;14.35;100.00
45763;BME280;37512;52.408;13.356;2022-10-26T18:35:49;101569.75;;;14.28;100.00
45763;BME280;37512;52.408;13.356;2022-10-26T18:39:51;101570.84;;;14.42;100.00
45763;BME280;37512;52.408;13.356;2022-10-26T18:43:54;101578.78;;;14.40;100.00
45763;BME280;37512;52.408;13.356;2022-10-26T18:47:58;101579.84;;;14.32;100.00
45763;BME280;37512;52.408;13.356;2022-10-26T18:52:00;101580.56;;;14.29;100.00
45763;BME280;37512;52.408;13.356;2022-10-26T18:56:07;101581.94;;;13.96;100.00
45763;BME280;37512;52.408;13.356;2022-10-26T19:00:09;101571.34;;;14.06;100.00
45763;BME280;37512;52.408;13.356;2022-10-26T19:04:11;101570.25;;;14.10;100.00
45763;BME280;37512;52.408;13.356;2022-10-26T19:08:12;101577.22;;;13.81;100.00
45763;BME280;37512;52.408;13.356;2022-10-26T19:12:14;101586.31;;;13.97;100.00
45763;BME280;37512;52.408;13.356;2022-10-26T19:16:17;101579.13;;;13.96;100.00
45763;BME280;37512;52.408;13.356;2022-10-26T19:20:40;101591.19;;;14.00;100.00
45763;BME280;37512;52.408;13.356;2022-10-26T19:24:52;101591.00;;;13.93;100.00
45763;BME280;37512;52.408;13.356;2022-10-26T19:28:55;101595.34;;;13.71;100.00
45763;BME280;37512;52.408;13.356;2022-10-26T19:32:57;101604.88;;;13.70;100.00
45763;BME280;37512;52.408;13.356;2022-10-26T19:37:00;101605.41;;;13.76;100.00
45763;BME280;37512;52.408;13.356;2022-10-26T19:41:08;101606.56;;;13.55;100.00
45763;BME280;37512;52.408;13.356;2022-10-26T19:45:10;101607.03;;;13.42;100.00
45763;BME280;37512;52.408;13.356;2022-10-26T19:49:11;101607.38;;;13.40;100.00
45763;BME280;37512;52.408;13.356;2022-10-26T19:53:13;101617.00;;;13.27;100.00
45763;BME280;37512;52.408;13.356;2022-10-26T19:57:17;101630.69;;;13.00;100.00
45763;BME280;37512;52.408;13.356;2022-10-26T20:01:19;101634.56;;;13.11;100.00
45763;BME280;37512;52.408;13.356;2022-10-26T20:05:20;101641.09;;;12.71;100.00
45763;BME280;37512;52.408;13.356;2022-10-26T20:09:22;101648.34;;;12.60;100.00
45763;BME280;37512;52.408;13.356;2022-10-26T20:13:23;101652.38;;;12.63;100.00
45763;BME280;37512;52.408;13.356;2022-10-26T20:17:24;101651.59;;;12.62;100.00
45763;BME280;37512;52.408;13.356;2022-10-26T20:21:28;101655.00;;;12.71;100.00
45763;BME280;37512;52.408;13.356;2022-10-26T20:25:33;101646.06;;;12.94;100.00
45763;BME280;37512;52.408;13.356;2022-10-26T20:29:38;101659.78;;;12.14;100.00
45763;BME280;37512;52.408;13.356;2022-10-26T20:33:39;101668.09;;;12.55;100.00
45763;BME280;37512;52.408;13.356;2022-10-26T20:37:41;101671.81;;;12.59;100.00
45763;BME280;37512;52.408;13.356;2022-10-26T20:41:43;101675.69;;;12.70;100.00
45763;BME280;37512;52.408;13.356;2022-10-26T20:45:44;101678.41;;;12.83;100.00
45763;BME280;37512;52.408;13.356;2022-10-26T20:49:46;101684.69;;;12.80;100.00
45763;BME280;37512;52.408;13.356;2022-10-26T20:58:18;101679.31;;;12.87;100.00
45763;BME280;37512;52.408;13.356;2022-10-26T21:02:21;101680.63;;;12.77;100.00
45763;BME280;37512;52.408;13.356;2022-10-26T21:06:24;101682.81;;;12.55;100.00
45763;BME280;37512;52.408;13.356;2022-10-26T21:10:27;101684.34;;;12.25;100.00
45763;BME280;37512;52.408;13.356;2022-10-26T21:14:29;101701.47;;;12.27;100.00
45763;BME280;37512;52.408;13.356;2022-10-26T21:18:31;101696.03;;;12.30;100.00
45763;BME280;37512;52.408;13.356;2022-10-26T21:22:33;101699.06;;;12.25;100.00
45763;BME280;37512;52.408;13.356;2022-10-26T21:26:34;101696.47;;;11.92;100.00
45763;BME280;37512;52.408;13.356;2022-10-26T21:30:35;101709.56;;;11.79;100.00
45763;BME280;37512;52.408;13.356;2022-10-26T21:34:37;101703.56;;;11.89;100.00
45763;BME280;37512;52.408;13.356;2022-10-26T21:38:40;101715.34;;;11.74;100.00
45763;BME280;37512;52.408;13.356;2022-10-26T21:42:47;101715.81;;;11.76;100.00
45763;BME280;37512;52.408;13.356;2022-10-26T21:46:49;101721.50;;;11.80;100.00
45763;BME280;37512;52.408;13.356;2022-10-26T21:50:51;101729.38;;;11.78;100.00
45763;BME280;37512;52.408;13.356;2022-10-26T21:54:52;101720.69;;;11.67;100.00
45763;BME280;37512;52.408;13.356;2022-10-26T21:58:53;101719.56;;;11.68;100.00
45763;BME280;37512;52.408;13.356;2022-10-26T22:02:55;101723.38;;;11.63;100.00
45763;BME280;37512;52.408;13.356;2022-10-26T22:06:56;101739.22;;;11.38;100.00
45763;BME280;37512;52.408;13.356;2022-10-26T22:10:58;101737.34;;;11.42;100.00
45763;BME280;37512;52.408;13.356;2022-10-26T22:15:05;101730.66;;;11.43;100.00
45763;BME280;37512;52.408;13.356;2022-10-26T22:19:07;101734.34;;;11.35;100.00
45763;BME280;37512;52.408;13.356;2022-10-26T22:23:09;101737.94;;;11.36;100.00
45763;BME280;37512;52.408;13.356;2022-10-26T22:27:10;101739.94;;;11.47;100.00
45763;BME280;37512;52.408;13.356;2022-10-26T22:31:16;101750.53;;;11.08;100.00
45763;BME280;37512;52.408;13.356;2022-10-26T22:35:17;101754.66;;;11.02;100.00
45763;BME280;37512;52.408;13.356;2022-10-26T22:39:29;101754.19;;;11.00;100.00
45763;BME280;37512;52.408;13.356;2022-10-26T22:43:31;101752.59;;;11.12;100.00
45763;BME280;37512;52.408;13.356;2022-10-26T22:47:33;101755.16;;;11.17;100.00
45763;BME280;37512;52.408;13.356;2022-10-26T22:51:34;101751.00;;;11.23;100.00